Time;durP1;ratioP1;P1;durP2;ratioP2;P2;SDS_P1;SDS_P2;PMS_P1;PMS_P2;Temp;Humidity;BMP_temperature;BMP_pressure;BME280_temperature;BME280_humidity;BME280_pressure;Samples;Min_cycle;Max_cycle;Signal;HPM_P1;HPM_P2
2021/10/21 00:02:00;;;;;;;1.49;0.70;;;;;;;14.21;92.39;97614.25;2331483;66;32814;-80
2021/10/21 00:05:04;;;;;;;1.27;0.70;;;;;;;14.22;92.39;97602.88;2329852;69;20108;-80
2021/10/21 00:08:07;;;;;;;3.94;0.70;;;;;;;14.24;92.25;97572.31;2330539;69;20130;-80
2021/10/21 00:11:10;;;;;;;1.31;0.75;;;;;;;14.24;92.24;97534.94;2333231;69;20140;-80
2021/10/21 00:14:43;;;;;;;1.41;0.74;;;;;;;14.26;92.21;97546.13;2323644;69;20164;-80
2021/10/21 00:17:46;;;;;;;3.85;0.77;;;;;;;14.26;92.36;97543.53;2323412;66;29879;-80
2021/10/21 00:20:48;;;;;;;1.49;0.90;;;;;;;14.27;92.37;97548.66;2325279;68;20152;-80
2021/10/21 00:23:51;;;;;;;2.50;0.98;;;;;;;14.30;92.52;97537.22;2335359;69;20188;-79
2021/10/21 00:26:54;;;;;;;1.69;0.99;;;;;;;14.33;92.40;97542.28;2326708;68;20101;-80
2021/10/21 00:29:58;;;;;;;1.11;1.00;;;;;;;14.36;92.28;97550.84;2327774;69;20144;-80
2021/10/21 00:33:00;;;;;;;3.22;1.11;;;;;;;14.39;92.25;97552.47;2337973;66;30924;-80
2021/10/21 00:36:03;;;;;;;1.05;0.90;;;;;;;14.46;91.53;97546.03;2331035;69;20141;-81
2021/10/21 00:39:06;;;;;;;1.42;1.00;;;;;;;14.51;91.15;97562.31;2332532;68;20142;-80
2021/10/21 00:42:48;;;;;;;4.54;0.98;;;;;;;14.55;91.02;97503.78;2343724;68;20105;-81
2021/10/21 01:38:17;;;;;;;1.38;0.30;;;;;;;12.54;88.71;97591.22;2325343;69;20134;-84
2021/10/21 01:41:43;;;;;;;1.22;0.30;;;;;;;12.47;88.88;97601.03;2344081;68;20105;-84
2021/10/21 01:45:03;;;;;;;0.86;0.39;;;;;;;12.35;88.34;97609.34;2342248;68;20130;-83
2021/10/21 01:48:28;;;;;;;1.48;0.36;;;;;;;12.29;87.83;97605.22;2339907;69;20210;-84
2021/10/21 01:51:57;;;;;;;1.04;0.30;;;;;;;12.26;88.28;97620.97;2353741;68;20100;-83
2021/10/21 01:55:18;;;;;;;2.21;0.40;;;;;;;12.18;87.83;97643.81;2342922;68;20206;-83
2021/10/21 01:58:23;;;;;;;2.21;0.49;;;;;;;12.14;87.90;97631.84;2334971;69;20167;-82
2021/10/21 02:01:32;;;;;;;1.38;0.30;;;;;;;12.09;85.81;97639.84;2337287;68;20129;-84
2021/10/21 02:04:46;;;;;;;1.99;0.40;;;;;;;12.06;85.16;97650.38;2352130;68;20112;-83
2021/10/21 02:07:54;;;;;;;3.81;0.49;;;;;;;12.03;84.96;97650.50;2339222;68;20164;-84
2021/10/21 02:10:59;;;;;;;0.93;0.38;;;;;;;11.97;84.84;97637.69;2351913;68;20152;-81
2021/10/21 02:14:02;;;;;;;3.00;0.74;;;;;;;11.94;84.10;97636.97;2345662;68;20145;-82
2021/10/21 02:17:07;;;;;;;3.58;0.49;;;;;;;11.88;82.63;97639.81;2338112;66;37540;-81
2021/10/21 02:20:11;;;;;;;1.09;0.30;;;;;;;11.84;82.18;97646.88;2362388;68;20133;-80
2021/10/21 02:23:13;;;;;;;2.20;0.52;;;;;;;11.80;82.43;97629.69;2350999;68;20135;-81
2021/10/21 02:26:16;;;;;;;2.59;0.52;;;;;;;11.79;82.90;97630.59;2336283;68;20246;-81
2021/10/21 02:29:18;;;;;;;3.45;0.32;;;;;;;11.76;82.53;97617.69;2345813;68;20159;-81
2021/10/21 02:32:21;;;;;;;4.03;0.40;;;;;;;11.75;81.29;97634.19;2332367;66;35172;-81
2021/10/21 02:35:24;;;;;;;1.77;0.30;;;;;;;11.78;81.47;97618.47;2340692;68;20172;-81
2021/10/21 02:38:27;;;;;;;2.39;0.24;;;;;;;11.77;82.17;97611.56;2335967;68;20099;-80
2021/10/21 02:41:30;;;;;;;3.11;0.65;;;;;;;11.80;81.58;97604.53;2332665;68;20112;-82
2021/10/21 02:44:34;;;;;;;3.25;0.94;;;;;;;11.85;80.69;97612.19;2336913;68;20148;-81
2021/10/21 02:47:37;;;;;;;5.57;0.30;;;;;;;11.88;80.79;97614.66;2337622;68;20129;-80
2021/10/21 02:50:39;;;;;;;6.81;0.66;;;;;;;11.94;78.36;97632.63;2339897;68;20133;-82
2021/10/21 02:53:43;;;;;;;5.60;0.40;;;;;;;12.00;77.19;97634.97;2333690;68;20149;-82
2021/10/21 02:56:47;;;;;;;5.76;0.50;;;;;;;12.00;77.61;97615.94;2327561;68;20141;-83
2021/10/21 02:59:50;;;;;;;1.38;0.40;;;;;;;12.00;78.02;97608.13;2334697;69;20109;-80
2021/10/21 03:02:53;;;;;;;1.85;0.50;;;;;;;11.97;77.78;97629.91;2338384;68;20101;-82
2021/10/21 03:05:59;;;;;;;4.79;0.52;;;;;;;12.00;76.16;97616.78;2338741;68;20214;-81
2021/10/21 03:09:04;;;;;;;8.04;1.06;;;;;;;11.99;75.96;97606.44;2347000;69;20124;-81
2021/10/21 03:12:06;;;;;;;3.42;0.63;;;;;;;11.97;76.25;97627.31;2340528;68;20144;-81
2021/10/21 03:15:10;;;;;;;4.65;0.89;;;;;;;12.00;75.40;97616.78;2334158;68;20103;-81
2021/10/21 03:18:13;;;;;;;4.44;0.60;;;;;;;12.04;73.65;97612.31;2337580;69;20124;-81
2021/10/21 03:21:16;;;;;;;5.13;0.63;;;;;;;12.07;74.20;97607.00;2340727;68;20104;-81
2021/10/21 03:24:19;;;;;;;6.14;0.91;;;;;;;12.08;73.75;97596.53;2336839;68;20167;-81
2021/10/21 03:27:23;;;;;;;7.29;0.94;;;;;;;12.10;73.28;97623.31;2331836;68;20092;-81
2021/10/21 03:30:26;;;;;;;2.89;0.60;;;;;;;12.13;71.90;97617.16;2342267;68;20241;-82
2021/10/21 03:33:33;;;;;;;6.41;0.68;;;;;;;12.17;71.69;97626.53;2338137;68;20129;-81
2021/10/21 03:36:40;;;;;;;5.44;0.56;;;;;;;12.17;72.27;97628.28;2331822;69;20108;-82
2021/10/21 03:39:43;;;;;;;5.79;0.84;;;;;;;12.15;72.45;97632.69;2342594;69;20104;-81
2021/10/21 03:42:48;;;;;;;9.46;0.88;;;;;;;12.10;73.43;97648.50;2341553;68;20116;-83
2021/10/21 03:45:54;;;;;;;8.06;0.79;;;;;;;12.14;71.36;97628.41;2340435;69;20119;-82
2021/10/21 03:48:57;;;;;;;3.17;0.70;;;;;;;12.17;72.38;97647.34;2336777;68;20108;-81
2021/10/21 03:52:00;;;;;;;11.00;0.80;;;;;;;12.18;72.42;97653.38;2339364;68;20146;-80
2021/10/21 03:55:04;;;;;;;7.25;0.80;;;;;;;12.22;70.45;97676.66;2338135;68;20112;-81
2021/10/21 03:58:09;;;;;;;6.56;1.01;;;;;;;12.28;70.77;97683.38;2338757;68;20121;-81
2021/10/21 04:01:14;;;;;;;9.10;0.94;;;;;;;12.34;70.50;97701.34;2334433;68;20196;-81
2021/10/21 04:04:25;;;;;;;6.74;0.80;;;;;;;12.38;69.51;97705.50;2335589;68;20154;-81
2021/10/21 04:07:28;;;;;;;7.29;1.13;;;;;;;12.40;70.29;97724.53;2339269;68;20155;-81
2021/10/21 04:10:42;;;;;;;11.63;0.70;;;;;;;12.34;70.69;97730.81;2340720;68;20108;-81
2021/10/21 04:13:45;;;;;;;9.48;0.94;;;;;;;12.33;72.14;97729.13;2350501;68;20116;-80
2021/10/21 04:16:49;;;;;;;5.39;0.66;;;;;;;12.26;72.42;97738.09;2346608;68;20150;-81
2021/10/21 04:19:56;;;;;;;;;;;;;;;12.23;72.73;97724.34;2336662;69;20147;-81
2021/10/21 04:23:00;;;;;;;5.21;0.74;;;;;;;12.20;71.96;97734.84;2338650;68;20112;-82
2021/10/21 04:26:05;;;;;;;6.72;0.91;;;;;;;12.19;72.14;97731.38;2325979;69;20259;-81
2021/10/21 04:29:16;;;;;;;8.71;0.80;;;;;;;12.17;70.79;97751.41;2331408;69;20151;-81
2021/10/21 04:32:21;;;;;;;3.44;0.61;;;;;;;12.25;68.52;97765.00;2333111;67;26814;-81
2021/10/21 04:35:28;;;;;;;8.43;1.02;;;;;;;12.34;67.46;97771.59;2332118;69;20163;-82
2021/10/21 04:38:39;;;;;;;4.59;0.70;;;;;;;12.32;68.02;97781.22;2331286;69;20133;-81
2021/10/21 04:41:43;;;;;;;4.84;1.05;;;;;;;12.31;67.95;97792.56;2335183;69;20169;-82
2021/10/21 04:44:49;;;;;;;4.56;0.52;;;;;;;12.27;68.22;97781.41;2337353;68;20120;-81
2021/10/21 04:47:57;;;;;;;4.63;0.45;;;;;;;12.24;69.05;97778.09;2340450;66;43439;-80
2021/10/21 04:51:00;;;;;;;3.15;0.50;;;;;;;12.21;67.81;97789.47;2337783;68;20104;-80
2021/10/21 04:54:03;;;;;;;4.50;0.60;;;;;;;12.21;67.44;97781.66;2338848;68;20163;-81
2021/10/21 04:57:06;;;;;;;4.04;0.60;;;;;;;12.23;67.72;97805.84;2339471;69;20140;-80
2021/10/21 05:00:10;;;;;;;4.06;0.93;;;;;;;12.23;67.01;97813.66;2335939;69;20204;-81
2021/10/21 05:03:15;;;;;;;5.91;0.30;;;;;;;12.26;66.84;97820.50;2335568;68;20193;-82
2021/10/21 05:06:18;;;;;;;3.31;0.39;;;;;;;12.28;67.57;97811.72;2330874;69;20179;-81
2021/10/21 05:09:20;;;;;;;4.68;0.49;;;;;;;12.27;65.86;97815.25;2337404;69;20125;-81
2021/10/21 05:12:23;;;;;;;2.06;0.40;;;;;;;12.29;66.26;97815.19;2331559;69;20145;-81
2021/10/21 05:15:30;;;;;;;2.29;0.20;;;;;;;12.26;65.40;97833.50;2334546;68;20104;-81
2021/10/21 05:18:36;;;;;;;7.10;0.40;;;;;;;12.29;65.52;97818.63;2335063;69;20148;-82
2021/10/21 05:21:40;;;;;;;5.07;0.40;;;;;;;12.28;66.63;97847.31;2330268;69;20135;-80
2021/10/21 05:24:46;;;;;;;4.20;0.40;;;;;;;12.19;66.03;97845.88;2336720;68;20120;-81
2021/10/21 05:27:49;;;;;;;3.08;0.30;;;;;;;12.18;67.27;97867.59;2337498;68;20140;-82
2021/10/21 05:30:54;;;;;;;1.90;0.43;;;;;;;12.14;67.15;97849.56;2338497;68;20195;-80
2021/10/21 05:37:16;;;;;;;2.75;0.28;;;;;;;12.06;67.09;97863.69;2322133;68;20168;-82
2021/10/21 05:40:26;;;;;;;3.40;0.20;;;;;;;12.06;67.80;97883.66;2325553;68;20168;-80
2021/10/21 05:43:30;;;;;;;2.55;0.34;;;;;;;11.92;68.49;97910.13;2325380;69;20105;-80
2021/10/21 05:46:34;;;;;;;3.79;0.25;;;;;;;11.81;70.73;97922.63;2327381;69;20218;-80
2021/10/21 05:49:36;;;;;;;2.14;0.20;;;;;;;11.62;72.46;97922.34;2320618;69;20163;-81
2021/10/21 05:52:40;;;;;;;4.68;0.39;;;;;;;11.46;74.26;97931.53;2321946;69;20179;-80
2021/10/21 05:55:48;;;;;;;9.07;1.15;;;;;;;11.28;75.23;97929.50;2325383;69;20135;-82
2021/10/21 05:58:57;;;;;;;3.17;0.34;;;;;;;11.19;76.46;97941.03;2330354;69;20245;-81
2021/10/21 06:02:05;;;;;;;5.50;0.16;;;;;;;11.04;77.39;97975.25;2326483;69;20163;-80
2021/10/21 06:05:09;;;;;;;5.47;0.44;;;;;;;10.93;77.97;97987.69;2333519;69;20192;-81
2021/10/21 06:08:14;;;;;;;0.54;0.10;;;;;;;10.81;79.28;97989.75;2332029;69;20172;-81
2021/10/21 06:11:18;;;;;;;0.36;0.20;;;;;;;10.73;80.43;98006.44;2331569;69;20109;-82
2021/10/21 06:14:24;;;;;;;1.80;0.20;;;;;;;10.68;80.84;98034.25;2335074;69;20097;-81
2021/10/21 06:17:27;;;;;;;1.09;0.10;;;;;;;10.65;81.59;98044.72;2337511;66;38147;-81
2021/10/21 06:20:30;;;;;;;2.66;0.20;;;;;;;10.62;81.75;98078.56;2327245;69;20218;-82
2021/10/21 06:30:21;;;;;;;2.14;0.28;;;;;;;10.49;82.81;98138.56;2328403;69;20134;-83
2021/10/21 06:33:23;;;;;;;0.85;0.20;;;;;;;10.52;82.76;98142.81;2341182;68;20159;-81
2021/10/21 06:36:27;;;;;;;1.24;0.20;;;;;;;10.53;82.99;98144.50;2332241;69;21184;-82
2021/10/21 06:39:31;;;;;;;1.76;0.41;;;;;;;10.55;83.23;98168.69;2338812;68;20112;-83
2021/10/21 06:42:33;;;;;;;1.11;0.17;;;;;;;10.54;83.32;98170.44;2323694;69;20133;-82
2021/10/21 06:48:47;;;;;;;0.96;0.10;;;;;;;10.47;83.47;98204.34;2334744;68;20105;-82
2021/10/21 06:51:50;;;;;;;1.63;0.10;;;;;;;10.44;84.12;98270.16;2323627;69;20160;-82
2021/10/21 06:54:53;;;;;;;0.20;0.10;;;;;;;10.40;84.50;98281.47;2343175;68;20116;-81
2021/10/21 06:57:58;;;;;;;1.10;0.54;;;;;;;10.45;84.40;98300.41;2324329;73;20345;-83
2021/10/21 07:01:01;;;;;;;3.44;0.19;;;;;;;10.45;84.18;98300.41;2326983;68;20146;-81
2021/10/21 07:04:08;;;;;;;1.01;0.10;;;;;;;10.48;84.00;98315.91;2319512;69;20104;-82
2021/10/21 07:07:11;;;;;;;2.09;0.10;;;;;;;10.50;83.15;98327.13;2341334;68;20168;-83
2021/10/21 07:10:14;;;;;;;2.39;0.10;;;;;;;10.55;83.08;98338.25;2331377;68;20115;-83
2021/10/21 07:13:38;;;;;;;0.66;0.10;;;;;;;10.56;83.11;98358.13;2333147;69;20167;-83
2021/10/21 07:16:43;;;;;;;0.71;0.10;;;;;;;10.52;83.63;98359.06;2332649;69;20153;-85
2021/10/21 07:19:50;;;;;;;0.34;0.15;;;;;;;10.49;84.65;98387.69;2341189;68;20129;-85
2021/10/21 08:07:50;;;;;;;0.65;0.29;;;;;;;10.49;76.86;98605.72;2316756;68;20168;-80
2021/10/21 08:10:56;;;;;;;2.86;0.30;;;;;;;10.54;76.18;98611.69;2330721;68;20256;-81
2021/10/21 08:13:58;;;;;;;2.10;0.16;;;;;;;10.61;76.44;98640.16;2347519;68;20123;-81
2021/10/21 08:17:01;;;;;;;1.33;0.28;;;;;;;10.60;75.77;98639.28;2368375;68;20100;-82
2021/10/21 08:20:05;;;;;;;1.55;0.24;;;;;;;10.64;75.92;98653.94;2353674;68;20100;-81
2021/10/21 08:23:11;;;;;;;2.47;0.40;;;;;;;10.66;75.61;98656.50;2339549;68;20163;-81
2021/10/21 08:36:08;;;;;;;3.30;0.40;;;;;;;10.88;74.72;98691.59;2310212;69;20148;-80
2021/10/21 08:39:11;;;;;;;2.13;0.20;;;;;;;10.97;74.20;98701.00;2344471;68;20124;-81
2021/10/21 08:42:16;;;;;;;4.26;0.30;;;;;;;11.02;73.67;98702.63;2340976;68;20108;-81
2021/10/21 08:45:19;;;;;;;3.53;0.55;;;;;;;11.10;74.00;98707.66;2336934;68;20130;-79
2021/10/21 08:48:22;;;;;;;3.85;0.45;;;;;;;11.22;73.75;98714.41;2341761;69;20116;-80
2021/10/21 08:51:27;;;;;;;1.96;0.50;;;;;;;11.34;74.08;98724.59;2344329;68;20216;-81
2021/10/21 10:54:39;;;;;;;4.21;0.60;;;;;;;14.15;59.95;98787.50;2335572;69;20144;-79
2021/10/21 10:58:17;;;;;;;6.46;1.14;;;;;;;14.23;61.95;98787.28;2338170;68;20140;-81
2021/10/21 11:01:30;;;;;;;6.28;0.81;;;;;;;14.24;60.80;98789.00;2339663;68;20134;-80
2021/10/21 11:23:35;;;;;;;7.18;1.21;;;;;;;14.96;55.48;98758.09;2308110;69;20199;-82
2021/10/21 14:24:27;;;;;;;4.91;0.68;;;;;;;14.01;52.76;98694.84;2334362;68;20126;-79
2021/10/21 14:32:32;;;;;;;;;;;;;;;13.97;53.81;98695.78;2337541;66;20224;-81
2021/10/21 14:40:24;;;;;;;3.60;0.46;;;;;;;14.00;53.64;98670.44;2325124;69;20142;-81
2021/10/21 14:44:00;;;;;;;5.41;0.70;;;;;;;14.02;54.20;98681.72;2323148;69;20161;-80
2021/10/21 14:47:22;;;;;;;3.64;0.68;;;;;;;14.05;53.87;98681.63;2327978;66;60777;-79
2021/10/21 14:50:26;;;;;;;6.55;0.84;;;;;;;14.14;54.67;98683.09;2331899;68;20197;-79
2021/10/21 14:53:30;;;;;;;3.24;0.73;;;;;;;14.12;53.57;98683.16;2329491;68;20147;-80
2021/10/21 14:57:09;;;;;;;5.63;1.04;;;;;;;14.11;54.60;98677.97;2330472;69;20300;-80
2021/10/21 15:01:01;;;;;;;7.95;2.29;;;;;;;13.99;55.22;98696.59;2330501;68;20293;-79
2021/10/21 15:04:34;;;;;;;5.74;0.86;;;;;;;13.77;55.51;98684.19;2326584;69;20151;-79
2021/10/21 15:11:46;;;;;;;4.84;0.85;;;;;;;13.49;57.30;98706.75;2322340;69;20297;-79
2021/10/21 15:15:34;;;;;;;4.06;0.57;;;;;;;13.29;59.52;98713.34;2326100;69;20160;-79
2021/10/21 15:26:23;;;;;;;4.99;0.85;;;;;;;12.73;64.82;98726.88;2332745;68;20250;-80
2021/10/21 15:30:38;;;;;;;5.31;0.80;;;;;;;12.66;66.44;98737.44;2295001;70;20147;-81
2021/10/21 15:34:59;;;;;;;3.19;0.70;;;;;;;12.54;68.31;98734.25;2292994;70;20210;-83
2021/10/21 15:39:37;;;;;;;;;;;;;;;;;;;;;
2021/10/21 15:43:08;;;;;;;3.58;0.69;;;;;;;12.20;71.15;98745.41;2262338;71;20264;-80
2021/10/21 16:52:55;;;;;;;2.54;0.70;;;;;;;10.85;86.21;98805.94;2326413;69;20203;-83
2021/10/21 16:55:58;;;;;;;3.78;0.65;;;;;;;10.89;86.71;98836.16;2333500;68;20124;-84
2021/10/21 16:59:23;;;;;;;4.07;0.69;;;;;;;10.87;86.97;98848.31;2328732;68;20158;-84
2021/10/21 17:02:29;;;;;;;3.63;0.70;;;;;;;10.85;86.03;98850.94;2324313;66;37532;-84
2021/10/21 17:05:32;;;;;;;3.26;0.59;;;;;;;10.86;86.02;98851.78;2326437;69;20163;-85
2021/10/21 17:08:38;;;;;;;2.71;0.56;;;;;;;10.82;86.01;98850.97;2328145;69;20148;-85
2021/10/21 17:11:41;;;;;;;2.74;0.70;;;;;;;10.83;85.83;98852.69;2329267;69;20138;-83
2021/10/21 17:14:47;;;;;;;4.35;0.80;;;;;;;10.81;86.00;98861.41;2303612;69;20173;-83
2021/10/21 17:17:51;;;;;;;3.31;1.00;;;;;;;10.80;86.61;98885.66;2315864;69;20275;-84
2021/10/21 17:20:54;;;;;;;3.65;0.79;;;;;;;10.80;86.95;98881.31;2312984;69;20126;-85
2021/10/21 17:23:57;;;;;;;4.22;0.69;;;;;;;10.79;86.84;98873.53;2307985;69;20115;-84
2021/10/21 17:26:59;;;;;;;6.03;0.91;;;;;;;10.73;86.68;98866.69;2307342;69;20168;-84
2021/10/21 17:30:05;;;;;;;2.44;0.45;;;;;;;10.72;87.02;98870.16;2311442;69;20142;-84
2021/10/21 17:33:28;;;;;;;4.36;0.96;;;;;;;10.69;86.98;98882.31;2323025;68;20108;-84
2021/10/21 17:36:32;;;;;;;1.79;0.40;;;;;;;10.66;86.44;98888.41;2328949;68;20208;-86
2021/10/21 17:39:36;;;;;;;1.67;0.54;;;;;;;10.62;86.49;98889.34;2328097;69;20117;-85
2021/10/21 17:42:39;;;;;;;5.50;2.55;;;;;;;10.57;86.67;98904.97;2326012;69;20217;-85
2021/10/21 17:45:48;;;;;;;1.70;0.50;;;;;;;10.58;87.26;98916.19;2326790;69;20182;-86
2021/10/21 17:49:01;;;;;;;8.20;4.32;;;;;;;10.59;87.38;98908.41;2325351;69;20128;-84
2021/10/21 17:52:04;;;;;;;3.13;0.80;;;;;;;10.59;87.23;98913.63;2322424;68;20137;-82
2021/10/21 17:55:08;;;;;;;4.03;0.95;;;;;;;10.57;87.30;98914.47;2324185;69;20148;-86
2021/10/21 17:58:13;;;;;;;1.50;0.66;;;;;;;10.53;87.22;98929.25;2315785;69;20135;-87
2021/10/21 18:01:16;;;;;;;2.63;0.50;;;;;;;10.49;85.64;98935.34;2312469;66;30543;-84
2021/10/21 18:04:19;;;;;;;1.25;0.46;;;;;;;10.38;84.10;98932.00;2320638;69;20117;-84
2021/10/21 18:07:22;;;;;;;1.27;0.40;;;;;;;10.32;84.05;98944.19;2312541;69;20149;-83
2021/10/21 18:10:25;;;;;;;0.80;0.50;;;;;;;10.19;83.60;98944.28;2320929;69;20121;-83
2021/10/21 18:13:28;;;;;;;0.95;0.30;;;;;;;10.04;83.53;98953.94;2319528;69;20157;-85
2021/10/21 18:16:31;;;;;;;0.68;0.26;;;;;;;9.89;83.67;98961.00;2330622;68;20130;-84
2021/10/21 18:19:34;;;;;;;0.71;0.39;;;;;;;9.77;84.21;98957.66;2322412;68;20104;-83
2021/10/21 18:22:37;;;;;;;0.90;0.30;;;;;;;9.65;84.70;98959.47;2327706;69;20108;-82
2021/10/21 18:42:10;;;;;;;1.04;0.35;;;;;;;9.14;86.74;98983.97;2308849;68;20305;-82
2021/10/21 18:45:15;;;;;;;0.96;0.44;;;;;;;9.10;87.15;98990.03;2326438;69;20245;-83
2021/10/21 18:48:39;;;;;;;0.80;0.36;;;;;;;9.17;87.35;98990.91;2328044;69;20103;-85
